Time;durP1;ratioP1;P1;durP2;ratioP2;P2;SDS_P1;SDS_P2;PMS_P1;PMS_P2;Temp;Humidity;BMP_temperature;BMP_pressure;BME280_temperature;BME280_humidity;BME280_pressure;Samples;Min_cycle;Max_cycle;Signal;HPM_P1;HPM_P2
2021/07/03 00:01:58;;;;;;;;;;;16.30;99.90;;;;;;5053012;28;19909;-79
2021/07/03 00:04:23;;;;;;;;;;;16.30;99.90;;;;;;5055213;28;19924;-79
2021/07/03 00:06:49;;;;;;;;;;;16.30;99.90;;;;;;5053765;28;19919;-79
2021/07/03 00:09:15;;;;;;;;;;;16.20;99.90;;;;;;5056128;28;19897;-78
2021/07/03 00:11:40;;;;;;;;;;;16.20;99.90;;;;;;5056769;28;19897;-78
2021/07/03 00:14:07;;;;;;;;;;;16.20;99.90;;;;;;5057018;28;19959;-79
2021/07/03 00:16:33;;;;;;;;;;;16.20;99.90;;;;;;5056819;28;19921;-79
2021/07/03 00:18:59;;;;;;;;;;;16.10;99.90;;;;;;5053867;28;19909;-79
2021/07/03 00:21:24;;;;;;;;;;;16.10;99.90;;;;;;5054918;28;19916;-79
2021/07/03 00:23:50;;;;;;;;;;;16.00;99.90;;;;;;5055286;28;19970;-79
2021/07/03 00:26:15;;;;;;;;;;;16.00;99.90;;;;;;5056599;28;19898;-79
2021/07/03 00:28:41;;;;;;;;;;;16.00;99.90;;;;;;5057233;28;19903;-79
2021/07/03 00:31:06;;;;;;;;;;;16.00;99.90;;;;;;5057010;28;19904;-79
2021/07/03 00:33:32;;;;;;;;;;;16.00;99.90;;;;;;5056888;28;19897;-79
2021/07/03 00:35:57;;;;;;;;;;;16.00;99.90;;;;;;5074371;28;19931;-80
2021/07/03 00:38:23;;;;;;;;;;;16.10;99.90;;;;;;5073802;28;19897;-78
2021/07/03 00:40:48;;;;;;;;;;;16.10;99.90;;;;;;5058590;28;19935;-78
2021/07/03 00:43:14;;;;;;;;;;;16.00;99.90;;;;;;5074831;28;19924;-78
2021/07/03 00:45:40;;;;;;;;;;;16.10;99.90;;;;;;5057230;28;19952;-78
2021/07/03 00:48:05;;;;;;;;;;;16.00;99.90;;;;;;5048388;28;19918;-79
2021/07/03 00:50:31;;;;;;;;;;;16.00;99.90;;;;;;5057829;28;19908;-79
2021/07/03 00:52:57;;;;;;;;;;;16.00;99.90;;;;;;5058007;28;19931;-78
2021/07/03 00:55:22;;;;;;;;;;;16.00;99.90;;;;;;5058742;28;19897;-78
2021/07/03 00:57:48;;;;;;;;;;;15.90;99.90;;;;;;5074285;28;19928;-77
2021/07/03 01:00:15;;;;;;;;;;;15.90;99.90;;;;;;5059401;28;19931;-78
2021/07/03 01:02:41;;;;;;;;;;;15.90;99.90;;;;;;5054924;28;19917;-77
2021/07/03 01:05:06;;;;;;;;;;;15.90;99.90;;;;;;5070207;28;19903;-79
2021/07/03 01:07:32;;;;;;;;;;;15.80;99.90;;;;;;5072529;28;19920;-78
2021/07/03 01:09:58;;;;;;;;;;;15.80;99.90;;;;;;5070960;28;19952;-79
2021/07/03 01:12:23;;;;;;;;;;;15.80;99.90;;;;;;5053752;28;19917;-76
2021/07/03 01:14:49;;;;;;;;;;;15.70;99.90;;;;;;5044830;28;20259;-79
2021/07/03 01:17:15;;;;;;;;;;;15.70;99.90;;;;;;5042212;28;19956;-79
2021/07/03 01:19:42;;;;;;;;;;;15.70;99.90;;;;;;5055037;28;20243;-78
2021/07/03 01:22:08;;;;;;;;;;;15.60;99.90;;;;;;5041659;28;19909;-79
2021/07/03 01:24:34;;;;;;;;;;;15.60;99.90;;;;;;5038671;28;19992;-79
2021/07/03 01:26:59;;;;;;;;;;;15.60;99.90;;;;;;5043956;28;19909;-79
2021/07/03 01:29:26;;;;;;;;;;;15.60;99.90;;;;;;5045573;28;19999;-79
2021/07/03 01:31:55;;;;;;;;;;;15.60;99.90;;;;;;5055404;28;19972;-78
2021/07/03 01:34:21;;;;;;;;;;;15.60;99.90;;;;;;5037725;28;19909;-79
2021/07/03 01:36:47;;;;;;;;;;;15.60;99.90;;;;;;5038024;28;19897;-79
2021/07/03 01:39:13;;;;;;;;;;;15.60;99.90;;;;;;5053091;28;20407;-79
2021/07/03 01:41:38;;;;;;;;;;;15.60;99.90;;;;;;5052329;28;19909;-79
2021/07/03 01:44:04;;;;;;;;;;;15.60;99.90;;;;;;5035514;28;19970;-79
2021/07/03 01:46:30;;;;;;;;;;;15.60;99.90;;;;;;5037791;28;19909;-79
2021/07/03 01:49:03;;;;;;;;;;;15.60;99.90;;;;;;5036751;28;19916;-79
2021/07/03 01:51:28;;;;;;;;;;;15.60;99.90;;;;;;5035110;28;19932;-78
2021/07/03 01:53:54;;;;;;;;;;;15.50;99.90;;;;;;5037886;28;19913;-78
2021/07/03 01:56:19;;;;;;;;;;;15.50;99.90;;;;;;5042096;28;19925;-79
2021/07/03 01:58:45;;;;;;;;;;;15.50;99.90;;;;;;5047532;28;19909;-78
2021/07/03 02:01:10;;;;;;;;;;;15.50;99.90;;;;;;5038134;28;19941;-79
2021/07/03 02:03:36;;;;;;;;;;;15.50;99.90;;;;;;5038406;28;19992;-79
2021/07/03 02:06:04;;;;;;;;;;;15.60;99.90;;;;;;5038569;28;19932;-78
2021/07/03 02:08:30;;;;;;;;;;;15.60;99.90;;;;;;5023751;28;19931;-79
2021/07/03 02:10:56;;;;;;;;;;;15.60;99.90;;;;;;5033580;28;19914;-79
2021/07/03 02:13:21;;;;;;;;;;;15.60;99.90;;;;;;5024510;28;20265;-78
2021/07/03 02:15:47;;;;;;;;;;;15.60;99.90;;;;;;5052211;28;19909;-78
2021/07/03 02:18:12;;;;;;;;;;;15.60;99.90;;;;;;5052797;28;19909;-79
2021/07/03 02:20:38;;;;;;;;;;;15.60;99.90;;;;;;5052912;28;19916;-79
2021/07/03 02:23:03;;;;;;;;;;;15.50;99.90;;;;;;5041893;28;19920;-79
2021/07/03 02:25:30;;;;;;;;;;;15.50;99.90;;;;;;5039865;28;19954;-78
2021/07/03 02:27:56;;;;;;;;;;;15.50;99.90;;;;;;5035889;28;20281;-79
2021/07/03 02:30:22;;;;;;;;;;;15.50;99.90;;;;;;5035807;28;19909;-79
2021/07/03 02:32:48;;;;;;;;;;;15.50;99.90;;;;;;5037171;28;19988;-79
2021/07/03 02:35:15;;;;;;;;;;;15.50;99.90;;;;;;5037304;28;20002;-79
2021/07/03 02:37:41;;;;;;;;;;;15.50;99.90;;;;;;5052257;28;19913;-79
2021/07/03 02:40:08;;;;;;;;;;;15.50;99.90;;;;;;5044130;28;20027;-79
2021/07/03 02:42:34;;;;;;;;;;;15.50;99.90;;;;;;5036459;28;20423;-78
2021/07/03 02:44:59;;;;;;;;;;;15.40;99.90;;;;;;5041326;28;19917;-79
2021/07/03 02:47:25;;;;;;;;;;;15.40;99.90;;;;;;5041850;28;19970;-78
2021/07/03 02:49:50;;;;;;;;;;;15.50;99.90;;;;;;5052262;28;19913;-78
2021/07/03 02:52:16;;;;;;;;;;;15.50;99.90;;;;;;5035853;28;19909;-79
2021/07/03 02:54:41;;;;;;;;;;;15.50;99.90;;;;;;5040038;28;19917;-78
2021/07/03 02:57:07;;;;;;;;;;;15.50;99.90;;;;;;5036159;28;19916;-79
2021/07/03 02:59:33;;;;;;;;;;;15.50;99.90;;;;;;5035990;28;19909;-79
2021/07/03 03:01:58;;;;;;;;;;;15.50;99.90;;;;;;5037863;28;19909;-78
2021/07/03 03:04:24;;;;;;;;;;;15.50;99.90;;;;;;5045532;28;20515;-78
2021/07/03 03:06:50;;;;;;;;;;;15.50;99.90;;;;;;5056321;28;20349;-79
2021/07/03 03:09:15;;;;;;;;;;;15.40;99.90;;;;;;5038243;28;19928;-79
2021/07/03 03:11:41;;;;;;;;;;;15.40;99.90;;;;;;5034957;28;19990;-79
2021/07/03 03:14:07;;;;;;;;;;;15.40;99.90;;;;;;5035832;28;19909;-78
2021/07/03 03:16:32;;;;;;;;;;;15.40;99.90;;;;;;5045904;28;19956;-79
2021/07/03 03:18:58;;;;;;;;;;;15.40;99.90;;;;;;5051202;28;20000;-79
2021/07/03 03:21:24;;;;;;;;;;;15.40;99.90;;;;;;5040806;28;20003;-79
2021/07/03 03:23:49;;;;;;;;;;;15.40;99.90;;;;;;5050003;28;20004;-81
2021/07/03 03:26:15;;;;;;;;;;;15.40;99.90;;;;;;5050555;28;19909;-79
2021/07/03 03:28:40;;;;;;;;;;;15.40;99.90;;;;;;5034402;28;20293;-79
2021/07/03 03:33:50;;;;;;;;;;;15.40;99.90;;;;;;5035922;28;20330;-79
2021/07/03 03:36:15;;;;;;;;;;;15.40;99.90;;;;;;5034503;28;20008;-79
2021/07/03 03:38:41;;;;;;;;;;;15.40;99.90;;;;;;5039934;28;20285;-79
2021/07/03 03:41:06;;;;;;;;;;;15.30;99.90;;;;;;5035531;28;20264;-80
2021/07/03 03:43:32;;;;;;;;;;;15.40;99.90;;;;;;5033278;28;19919;-80
2021/07/03 03:45:57;;;;;;;;;;;15.30;99.90;;;;;;5034314;28;19909;-80
2021/07/03 03:48:23;;;;;;;;;;;15.30;99.90;;;;;;5050881;28;20360;-79
2021/07/03 03:50:48;;;;;;;;;;;15.40;99.90;;;;;;5050324;28;19916;-79
2021/07/03 03:53:14;;;;;;;;;;;15.40;99.90;;;;;;5033732;28;20412;-79
2021/07/03 03:55:39;;;;;;;;;;;15.50;99.90;;;;;;5039566;28;20357;-79
2021/07/03 03:58:05;;;;;;;;;;;15.50;99.90;;;;;;5033944;28;19909;-79
2021/07/03 04:00:30;;;;;;;;;;;15.50;99.90;;;;;;5045880;28;19967;-79
2021/07/03 04:02:56;;;;;;;;;;;15.50;99.90;;;;;;5050285;28;20035;-78
2021/07/03 04:05:22;;;;;;;;;;;15.60;99.90;;;;;;5050104;28;19996;-78
2021/07/03 04:07:47;;;;;;;;;;;15.60;99.90;;;;;;5033604;28;19916;-78
2021/07/03 04:10:14;;;;;;;;;;;15.60;99.90;;;;;;5033957;28;19912;-78
2021/07/03 04:12:39;;;;;;;;;;;15.60;99.90;;;;;;5018151;28;19909;-78
2021/07/03 04:15:06;;;;;;;;;;;15.70;99.90;;;;;;5032034;28;19916;-78
2021/07/03 04:17:32;;;;;;;;;;;15.70;99.90;;;;;;5036499;28;20000;-79
2021/07/03 04:19:57;;;;;;;;;;;15.70;99.90;;;;;;5034449;28;19955;-79
2021/07/03 04:22:22;;;;;;;;;;;15.70;99.90;;;;;;5033730;28;20156;-78
2021/07/03 04:24:48;;;;;;;;;;;15.70;99.90;;;;;;5031507;28;19908;-79
2021/07/03 04:27:13;;;;;;;;;;;15.70;99.90;;;;;;5034392;28;19959;-79
2021/07/03 04:29:39;;;;;;;;;;;15.80;99.90;;;;;;5034472;28;19909;-79
2021/07/03 04:32:05;;;;;;;;;;;15.80;99.90;;;;;;5034593;28;19908;-79
2021/07/03 04:34:31;;;;;;;;;;;15.80;99.90;;;;;;5033105;28;20459;-79
2021/07/03 04:36:57;;;;;;;;;;;15.90;99.90;;;;;;5034205;28;19913;-79
2021/07/03 04:39:23;;;;;;;;;;;15.90;99.90;;;;;;5034490;28;20361;-79
2021/07/03 04:41:49;;;;;;;;;;;16.00;99.90;;;;;;5049361;28;20011;-79
2021/07/03 04:44:16;;;;;;;;;;;16.00;99.90;;;;;;5033688;28;19913;-79
2021/07/03 04:46:42;;;;;;;;;;;16.00;99.90;;;;;;5049308;28;19909;-79
2021/07/03 04:49:08;;;;;;;;;;;16.10;99.90;;;;;;5034240;28;19916;-79
2021/07/03 04:51:33;;;;;;;;;;;16.10;99.90;;;;;;5049536;28;19913;-80
2021/07/03 04:53:59;;;;;;;;;;;16.10;99.90;;;;;;5049477;28;19909;-79
2021/07/03 04:56:24;;;;;;;;;;;16.20;99.90;;;;;;5034360;28;19916;-79
2021/07/03 04:58:50;;;;;;;;;;;16.20;99.90;;;;;;5031869;28;19917;-79
2021/07/03 05:01:15;;;;;;;;;;;16.30;99.90;;;;;;5033983;28;20274;-78
2021/07/03 05:03:41;;;;;;;;;;;16.40;99.90;;;;;;5034021;28;19909;-79
2021/07/03 05:06:07;;;;;;;;;;;16.50;99.90;;;;;;5047264;28;19909;-79
2021/07/03 05:08:32;;;;;;;;;;;16.70;99.90;;;;;;5046620;28;19909;-78
2021/07/03 05:10:58;;;;;;;;;;;16.80;99.90;;;;;;5048116;28;20365;-79
2021/07/03 05:13:23;;;;;;;;;;;17.00;99.90;;;;;;5046680;28;19913;-78
2021/07/03 05:15:49;;;;;;;;;;;17.10;99.90;;;;;;5033835;28;19963;-78
2021/07/03 05:18:14;;;;;;;;;;;17.20;99.90;;;;;;5049116;28;20415;-78
2021/07/03 05:20:40;;;;;;;;;;;17.20;99.90;;;;;;5032990;28;19909;-78
2021/07/03 05:23:05;;;;;;;;;;;17.30;99.90;;;;;;5032892;28;19955;-79
2021/07/03 05:25:31;;;;;;;;;;;17.50;99.90;;;;;;5033413;28;19909;-79
2021/07/03 05:27:56;;;;;;;;;;;17.50;99.90;;;;;;5031697;28;19916;-79
2021/07/03 05:30:22;;;;;;;;;;;17.60;99.90;;;;;;5033856;28;19916;-79
2021/07/03 05:32:47;;;;;;;;;;;17.80;99.90;;;;;;5048949;28;20007;-78
2021/07/03 05:35:13;;;;;;;;;;;18.00;99.90;;;;;;5033767;28;19913;-78
2021/07/03 05:37:40;;;;;;;;;;;18.10;99.90;;;;;;5035066;28;19983;-78
2021/07/03 05:40:08;;;;;;;;;;;18.20;99.90;;;;;;5033756;28;19909;-78
2021/07/03 05:42:34;;;;;;;;;;;18.30;99.90;;;;;;5032563;28;19917;-78
2021/07/03 05:44:59;;;;;;;;;;;18.50;99.90;;;;;;5049109;28;19920;-78
2021/07/03 05:47:25;;;;;;;;;;;18.50;99.90;;;;;;5033170;28;20284;-78
2021/07/03 05:49:51;;;;;;;;;;;18.60;99.90;;;;;;5032416;28;19949;-79
2021/07/03 05:52:16;;;;;;;;;;;18.70;99.90;;;;;;5032235;28;19916;-79
2021/07/03 05:54:42;;;;;;;;;;;18.70;99.90;;;;;;5048778;28;20365;-79
2021/07/03 05:57:07;;;;;;;;;;;18.80;99.90;;;;;;5033225;28;19917;-79
2021/07/03 05:59:33;;;;;;;;;;;18.80;99.90;;;;;;5031950;28;20343;-78
2021/07/03 06:01:58;;;;;;;;;;;18.90;99.90;;;;;;5033662;28;20270;-79
2021/07/03 06:04:24;;;;;;;;;;;18.80;99.90;;;;;;5033616;28;19909;-78
2021/07/03 06:06:50;;;;;;;;;;;18.80;99.90;;;;;;5033514;28;19909;-78
2021/07/03 06:09:15;;;;;;;;;;;18.80;99.90;;;;;;5050204;28;20327;-78
2021/07/03 06:11:41;;;;;;;;;;;18.80;99.90;;;;;;5037172;28;19917;-78
2021/07/03 06:14:06;;;;;;;;;;;18.70;99.90;;;;;;5033626;28;20351;-78
2021/07/03 06:16:32;;;;;;;;;;;18.80;99.90;;;;;;5037287;28;20008;-79
2021/07/03 06:18:57;;;;;;;;;;;18.80;99.90;;;;;;5042825;28;19945;-78
2021/07/03 06:21:23;;;;;;;;;;;19.00;99.90;;;;;;5032248;28;20270;-78
2021/07/03 06:23:49;;;;;;;;;;;19.30;99.90;;;;;;5048463;28;19909;-78
2021/07/03 06:26:14;;;;;;;;;;;20.30;99.90;;;;;;5044169;28;19916;-78
2021/07/03 06:28:40;;;;;;;;;;;22.20;99.90;;;;;;5040982;28;19912;-78
2021/07/03 06:31:05;;;;;;;;;;;24.30;99.90;;;;;;5053480;28;19908;-78
2021/07/03 06:33:31;;;;;;;;;;;25.80;99.90;;;;;;5039558;28;19909;-78
2021/07/03 06:35:56;;;;;;;;;;;27.00;99.90;;;;;;5044628;28;19919;-78
2021/07/03 06:38:22;;;;;;;;;;;27.60;99.90;;;;;;5032239;28;19913;-78
2021/07/03 06:40:47;;;;;;;;;;;26.70;99.90;;;;;;5036277;28;19909;-78
2021/07/03 06:43:13;;;;;;;;;;;26.20;99.90;;;;;;5040747;28;19912;-78
2021/07/03 06:45:38;;;;;;;;;;;26.10;99.90;;;;;;5039477;28;20404;-78
2021/07/03 06:48:04;;;;;;;;;;;26.20;99.90;;;;;;5035674;28;19917;-78
2021/07/03 06:50:30;;;;;;;;;;;26.60;99.90;;;;;;5035850;28;19954;-78
2021/07/03 06:52:55;;;;;;;;;;;27.10;99.90;;;;;;5037305;28;19909;-78
2021/07/03 06:55:21;;;;;;;;;;;27.50;99.90;;;;;;5042848;28;19962;-78
2021/07/03 06:57:46;;;;;;;;;;;27.50;99.90;;;;;;5040007;28;19979;-78
2021/07/03 07:00:12;;;;;;;;;;;27.60;99.90;;;;;;5040518;28;19909;-78
2021/07/03 07:02:38;;;;;;;;;;;27.20;99.90;;;;;;5058125;28;20438;-78
2021/07/03 07:05:06;;;;;;;;;;;26.40;99.90;;;;;;5041266;28;19913;-78
2021/07/03 07:07:31;;;;;;;;;;;25.20;99.90;;;;;;5037053;28;19909;-78
2021/07/03 07:09:57;;;;;;;;;;;24.20;99.90;;;;;;5045685;28;19971;-77
2021/07/03 07:12:22;;;;;;;;;;;23.60;99.90;;;;;;5054210;28;19999;-77
2021/07/03 07:14:48;;;;;;;;;;;23.50;99.90;;;;;;5057191;28;19904;-77
2021/07/03 07:17:13;;;;;;;;;;;24.20;99.90;;;;;;5065983;28;19905;-78
2021/07/03 07:19:39;;;;;;;;;;;24.90;99.90;;;;;;5061873;28;19915;-78
2021/07/03 07:22:04;;;;;;;;;;;25.60;99.90;;;;;;5057748;28;19913;-78
2021/07/03 07:24:30;;;;;;;;;;;26.30;99.90;;;;;;5059024;28;19893;-78
2021/07/03 07:26:55;;;;;;;;;;;26.90;99.90;;;;;;5058037;28;19908;-77
2021/07/03 07:29:21;;;;;;;;;;;27.10;99.90;;;;;;5057799;28;19913;-78
2021/07/03 07:31:49;;;;;;;;;;;27.40;99.90;;;;;;5058745;28;19919;-77
2021/07/03 07:34:14;;;;;;;;;;;27.70;99.90;;;;;;5057784;28;19917;-78
2021/07/03 07:36:40;;;;;;;;;;;27.50;99.90;;;;;;5060130;28;19921;-77
2021/07/03 07:39:05;;;;;;;;;;;27.00;99.90;;;;;;5053258;28;19956;-78
2021/07/03 07:41:31;;;;;;;;;;;26.90;99.90;;;;;;5057634;28;19904;-78
2021/07/03 07:43:56;;;;;;;;;;;26.80;99.90;;;;;;5056812;28;19912;-77
2021/07/03 07:46:22;;;;;;;;;;;26.70;99.90;;;;;;5056569;28;19909;-78
2021/07/03 07:48:47;;;;;;;;;;;26.50;99.90;;;;;;5058425;28;19964;-79
2021/07/03 07:51:13;;;;;;;;;;;26.10;99.90;;;;;;5058597;28;19917;-79
2021/07/03 07:53:39;;;;;;;;;;;25.80;99.90;;;;;;5058812;28;19924;-79
2021/07/03 07:56:04;;;;;;;;;;;25.60;99.90;;;;;;5057587;28;19905;-80
2021/07/03 07:58:30;;;;;;;;;;;25.30;99.90;;;;;;5054146;28;19913;-79
2021/07/03 08:00:55;;;;;;;;;;;25.10;99.90;;;;;;5055417;28;19917;-78
2021/07/03 08:03:21;;;;;;;;;;;25.10;99.90;;;;;;5057151;28;19897;-86
2021/07/03 08:05:46;;;;;;;;;;;25.40;99.90;;;;;;5058601;28;19920;-80
2021/07/03 08:08:12;;;;;;;;;;;25.50;99.90;;;;;;5067843;28;19980;-80
2021/07/03 08:10:38;;;;;;;;;;;25.60;99.90;;;;;;5059020;28;19916;-79
2021/07/03 08:13:04;;;;;;;;;;;25.80;99.90;;;;;;5058529;28;19901;-78
2021/07/03 08:15:31;;;;;;;;;;;26.00;99.90;;;;;;5059226;28;19935;-79
2021/07/03 08:18:00;;;;;;;;;;;26.30;99.90;;;;;;5060821;28;19928;-80
2021/07/03 08:20:26;;;;;;;;;;;26.50;99.90;;;;;;5054318;28;19909;-81
2021/07/03 08:22:53;;;;;;;;;;;27.00;99.90;;;;;;5058644;28;19917;-81
2021/07/03 08:25:19;;;;;;;;;;;27.20;99.90;;;;;;5058507;28;19897;-82
2021/07/03 08:27:45;;;;;;;;;;;27.10;99.90;;;;;;5069643;28;19896;-81
2021/07/03 08:30:11;;;;;;;;;;;27.10;99.90;;;;;;5060304;28;19935;-78
2021/07/03 08:32:37;;;;;;;;;;;27.30;99.90;;;;;;5057828;28;19897;-79
2021/07/03 08:35:03;;;;;;;;;;;27.30;99.90;;;;;;5062360;28;19907;-81
2021/07/03 08:37:28;;;;;;;;;;;27.60;99.90;;;;;;5066338;28;19936;-81
2021/07/03 08:39:54;;;;;;;;;;;27.70;99.90;;;;;;5070216;28;19929;-78
2021/07/03 08:42:19;;;;;;;;;;;27.80;99.90;;;;;;5058280;28;19897;-76
2021/07/03 08:44:48;;;;;;;;;;;28.00;99.60;;;;;;5055934;28;19920;-75
2021/07/03 08:47:14;;;;;;;;;;;27.70;99.70;;;;;;5075219;28;19980;-76
2021/07/03 08:49:40;;;;;;;;;;;27.50;99.30;;;;;;5067981;28;19921;-76
2021/07/03 08:52:06;;;;;;;;;;;27.40;99.90;;;;;;5056690;28;19897;-76
2021/07/03 08:54:31;;;;;;;;;;;27.70;99.90;;;;;;5070928;28;19920;-75
2021/07/03 08:57:00;;;;;;;;;;;28.00;99.80;;;;;;5056490;28;19912;-75
2021/07/03 08:59:27;;;;;;;;;;;28.20;99.70;;;;;;5055707;28;19901;-75
2021/07/03 09:01:57;;;;;;;;;;;28.50;98.80;;;;;;5056938;28;19960;-77
2021/07/03 09:04:52;;;;;;;;;;;28.30;99.00;;;;;;5057318;28;19919;-76
2021/07/03 09:07:21;;;;;;;;;;;28.10;99.90;;;;;;5050300;28;19901;-76
2021/07/03 09:09:51;;;;;;;;;;;28.10;99.10;;;;;;5072157;28;19897;-75
2021/07/03 09:12:26;;;;;;;;;;;28.10;98.90;;;;;;5041578;28;19919;-78
2021/07/03 09:14:51;;;;;;;;;;;28.20;98.80;;;;;;5058571;28;19897;-74
2021/07/03 09:17:17;;;;;;;;;;;28.30;99.10;;;;;;5056152;28;19935;-76
2021/07/03 09:19:48;;;;;;;;;;;28.00;97.90;;;;;;5055596;28;19913;-75
2021/07/03 09:22:14;;;;;;;;;;;27.70;98.40;;;;;;5056234;28;19901;-75
2021/07/03 09:24:39;;;;;;;;;;;27.50;98.50;;;;;;5057749;28;19912;-76
2021/07/03 09:27:05;;;;;;;;;;;27.30;99.30;;;;;;5054723;28;19897;-77
2021/07/03 09:29:31;;;;;;;;;;;27.10;98.90;;;;;;5057826;28;19987;-75
2021/07/03 09:32:06;;;;;;;;;;;26.80;98.70;;;;;;5053682;28;19904;-75
2021/07/03 09:34:32;;;;;;;;;;;26.40;99.20;;;;;;5057496;28;19898;-74
2021/07/03 09:37:06;;;;;;;;;;;26.00;99.10;;;;;;5055891;28;19931;-75
2021/07/03 09:39:32;;;;;;;;;;;25.70;99.30;;;;;;5057461;28;19897;-74
2021/07/03 09:41:58;;;;;;;;;;;25.50;99.90;;;;;;5058407;28;19917;-76
2021/07/03 09:44:23;;;;;;;;;;;25.30;99.90;;;;;;5055832;28;19967;-76
2021/07/03 09:46:51;;;;;;;;;;;25.10;99.90;;;;;;5056928;28;19897;-76
2021/07/03 09:49:28;;;;;;;;;;;25.00;99.90;;;;;;5056876;28;19897;-74
2021/07/03 09:51:54;;;;;;;;;;;25.10;99.90;;;;;;5055291;28;19916;-76
2021/07/03 09:54:21;;;;;;;;;;;25.10;99.90;;;;;;5056300;28;19968;-76
2021/07/03 09:56:47;;;;;;;;;;;25.10;99.90;;;;;;5055924;28;19904;-75
2021/07/03 09:59:13;;;;;;;;;;;25.10;99.90;;;;;;5054566;28;19920;-76
2021/07/03 10:01:44;;;;;;;;;;;25.10;99.90;;;;;;5056791;28;19932;-74
2021/07/03 10:04:10;;;;;;;;;;;25.00;99.90;;;;;;5057443;28;19960;-73
2021/07/03 10:06:49;;;;;;;;;;;24.90;99.90;;;;;;5060446;28;19920;-73
2021/07/03 10:09:21;;;;;;;;;;;24.90;99.90;;;;;;5052923;28;19928;-73
2021/07/03 10:11:48;;;;;;;;;;;24.70;99.90;;;;;;5060096;28;19904;-76
2021/07/03 10:14:13;;;;;;;;;;;24.60;99.90;;;;;;5057851;28;19921;-74
2021/07/03 10:16:39;;;;;;;;;;;24.60;99.90;;;;;;5063777;28;19909;-74
2021/07/03 10:19:10;;;;;;;;;;;24.40;99.90;;;;;;5059858;28;19921;-76
2021/07/03 10:21:36;;;;;;;;;;;24.40;99.90;;;;;;5078084;28;19907;-73
2021/07/03 10:24:01;;;;;;;;;;;24.50;99.90;;;;;;5056940;28;19940;-74
2021/07/03 10:26:34;;;;;;;;;;;24.50;99.90;;;;;;5071548;28;19920;-74
2021/07/03 10:28:59;;;;;;;;;;;24.60;99.90;;;;;;5053336;28;19904;-74
2021/07/03 10:31:31;;;;;;;;;;;24.60;99.90;;;;;;5062557;28;19901;-74
2021/07/03 10:33:58;;;;;;;;;;;24.80;99.90;;;;;;5058520;28;19944;-74
2021/07/03 10:36:23;;;;;;;;;;;24.80;99.90;;;;;;5064518;28;20023;-74
2021/07/03 10:38:49;;;;;;;;;;;24.80;99.90;;;;;;5064914;28;19897;-74
2021/07/03 10:41:25;;;;;;;;;;;24.80;99.90;;;;;;5065378;28;20333;-75
2021/07/03 10:43:50;;;;;;;;;;;24.90;99.90;;;;;;5068528;28;19924;-74
2021/07/03 10:46:30;;;;;;;;;;;24.90;99.90;;;;;;5067912;28;19932;-73
2021/07/03 10:49:03;;;;;;;;;;;24.90;99.90;;;;;;5068650;28;19920;-73
2021/07/03 10:51:32;;;;;;;;;;;24.80;99.90;;;;;;5060116;28;19920;-73
2021/07/03 10:54:05;;;;;;;;;;;24.80;99.90;;;;;;5061564;28;19909;-76
2021/07/03 10:56:37;;;;;;;;;;;24.90;99.90;;;;;;5057421;28;19905;-75
2021/07/03 10:59:07;;;;;;;;;;;24.90;99.90;;;;;;5061193;28;19912;-76
2021/07/03 11:01:33;;;;;;;;;;;24.90;99.90;;;;;;5059855;28;19913;-75
2021/07/03 11:03:59;;;;;;;;;;;24.90;99.90;;;;;;5059249;28;19897;-75
2021/07/03 11:06:24;;;;;;;;;;;24.90;99.90;;;;;;5057197;28;19916;-74
2021/07/03 11:08:50;;;;;;;;;;;24.80;99.90;;;;;;5059433;28;19908;-73
2021/07/03 11:11:16;;;;;;;;;;;24.90;99.90;;;;;;5060451;28;19932;-75
2021/07/03 11:13:43;;;;;;;;;;;25.00;99.90;;;;;;5058221;28;19927;-74
2021/07/03 11:16:13;;;;;;;;;;;25.10;99.90;;;;;;5070857;28;19943;-76
2021/07/03 11:18:39;;;;;;;;;;;25.20;99.90;;;;;;5049085;28;19913;-73
2021/07/03 11:21:05;;;;;;;;;;;25.40;99.90;;;;;;5057367;28;20015;-74
2021/07/03 11:23:31;;;;;;;;;;;25.40;99.90;;;;;;5058722;28;19901;-78
2021/07/03 11:25:57;;;;;;;;;;;25.50;99.90;;;;;;5055090;28;19991;-77
2021/07/03 11:28:24;;;;;;;;;;;25.60;99.90;;;;;;5058038;28;19920;-79
2021/07/03 11:30:55;;;;;;;;;;;25.70;99.90;;;;;;5059189;28;19902;-82
2021/07/03 11:33:20;;;;;;;;;;;25.70;99.90;;;;;;5059247;28;19909;-80
2021/07/03 11:35:50;;;;;;;;;;;25.70;99.90;;;;;;5059363;28;19955;-81
2021/07/03 11:38:18;;;;;;;;;;;25.80;99.90;;;;;;5058777;28;19897;-79
2021/07/03 11:40:44;;;;;;;;;;;25.90;99.90;;;;;;5059868;28;19976;-77
2021/07/03 11:43:09;;;;;;;;;;;25.90;99.90;;;;;;5059006;28;19901;-78
2021/07/03 11:45:36;;;;;;;;;;;25.80;99.90;;;;;;5059733;28;19928;-81
2021/07/03 11:48:04;;;;;;;;;;;25.80;99.90;;;;;;5058502;28;19901;-77
2021/07/03 11:50:33;;;;;;;;;;;25.80;99.90;;;;;;5057050;28;19897;-76
2021/07/03 11:53:00;;;;;;;;;;;25.80;99.90;;;;;;5058598;28;19913;-81
2021/07/03 11:55:28;;;;;;;;;;;25.80;99.90;;;;;;5058493;28;19923;-80
2021/07/03 11:57:54;;;;;;;;;;;25.70;99.90;;;;;;5054711;28;19921;-77
2021/07/03 12:00:21;;;;;;;;;;;25.60;99.90;;;;;;5054178;28;19921;-76
2021/07/03 12:02:47;;;;;;;;;;;25.50;99.90;;;;;;5057643;28;19913;-76
2021/07/03 12:05:13;;;;;;;;;;;25.30;99.90;;;;;;5058292;28;19920;-76
2021/07/03 12:07:39;;;;;;;;;;;25.20;99.90;;;;;;5059083;28;19913;-79
2021/07/03 12:10:06;;;;;;;;;;;25.00;99.90;;;;;;5057754;28;19925;-74
2021/07/03 12:12:32;;;;;;;;;;;25.00;99.90;;;;;;5059049;28;19919;-75
2021/07/03 12:15:02;;;;;;;;;;;24.90;99.90;;;;;;5057170;28;19936;-81
2021/07/03 12:17:28;;;;;;;;;;;24.80;99.90;;;;;;5058162;28;19948;-78
2021/07/03 12:20:04;;;;;;;;;;;24.80;99.90;;;;;;5057685;28;19897;-75
2021/07/03 12:22:29;;;;;;;;;;;24.80;99.90;;;;;;5055524;28;19901;-77
2021/07/03 12:24:55;;;;;;;;;;;24.90;99.90;;;;;;5055328;28;19897;-77
2021/07/03 12:27:24;;;;;;;;;;;24.80;99.90;;;;;;5057310;28;19901;-76
2021/07/03 12:29:49;;;;;;;;;;;24.80;99.90;;;;;;5057366;28;19916;-77
2021/07/03 12:32:17;;;;;;;;;;;24.80;99.90;;;;;;5058169;28;19897;-82
2021/07/03 12:34:42;;;;;;;;;;;24.90;99.90;;;;;;5056005;28;19939;-80
2021/07/03 12:37:14;;;;;;;;;;;24.90;99.90;;;;;;5057911;28;19905;-81
2021/07/03 12:39:40;;;;;;;;;;;24.90;99.90;;;;;;5057951;28;19897;-78
2021/07/03 12:42:07;;;;;;;;;;;24.90;99.90;;;;;;5057830;28;19907;-83
2021/07/03 12:44:43;;;;;;;;;;;24.90;99.90;;;;;;5057541;28;20258;-83
2021/07/03 12:47:15;;;;;;;;;;;24.90;99.90;;;;;;5057259;28;19913;-79
2021/07/03 12:49:45;;;;;;;;;;;24.90;99.90;;;;;;5058410;28;19901;-81
2021/07/03 12:52:12;;;;;;;;;;;25.00;99.90;;;;;;5056365;28;19913;-81
2021/07/03 12:54:37;;;;;;;;;;;25.00;99.90;;;;;;5057778;28;19897;-82
2021/07/03 12:57:03;;;;;;;;;;;25.00;99.90;;;;;;5057725;28;19959;-84
2021/07/03 12:59:37;;;;;;;;;;;25.10;99.90;;;;;;5056387;28;19924;-85
2021/07/03 13:02:10;;;;;;;;;;;25.10;99.90;;;;;;5058955;28;19956;-84
2021/07/03 13:04:36;;;;;;;;;;;25.20;99.90;;;;;;5059187;28;19925;-82
2021/07/03 13:07:03;;;;;;;;;;;25.20;99.90;;;;;;5058206;28;19920;-81
2021/07/03 13:09:29;;;;;;;;;;;25.30;99.90;;;;;;5057015;28;19920;-81
2021/07/03 13:11:54;;;;;;;;;;;25.30;99.90;;;;;;5058490;28;19898;-80
2021/07/03 13:14:20;;;;;;;;;;;25.30;99.90;;;;;;5058295;28;19913;-81
2021/07/03 13:16:46;;;;;;;;;;;25.30;99.90;;;;;;5058090;28;19905;-78
2021/07/03 13:19:11;;;;;;;;;;;25.30;99.90;;;;;;5065402;28;19897;-81
2021/07/03 13:21:37;;;;;;;;;;;25.30;99.90;;;;;;5059014;28;19920;-76
2021/07/03 13:24:02;;;;;;;;;;;25.40;99.90;;;;;;5062993;28;19944;-79
2021/07/03 13:26:28;;;;;;;;;;;25.40;99.90;;;;;;5063563;28;19897;-77
2021/07/03 13:28:53;;;;;;;;;;;25.40;99.90;;;;;;5070161;28;19974;-82
2021/07/03 13:31:19;;;;;;;;;;;25.40;99.90;;;;;;5068923;28;19901;-81
2021/07/03 13:33:44;;;;;;;;;;;25.40;99.90;;;;;;5063103;28;19921;-81
2021/07/03 13:36:10;;;;;;;;;;;25.60;99.90;;;;;;5057740;28;19921;-78
2021/07/03 13:38:36;;;;;;;;;;;25.60;99.90;;;;;;5058831;28;19920;-80
2021/07/03 13:41:02;;;;;;;;;;;25.50;99.90;;;;;;5060378;28;19936;-78
2021/07/03 13:43:27;;;;;;;;;;;25.40;99.90;;;;;;5064006;28;19897;-81
2021/07/03 13:45:53;;;;;;;;;;;25.40;99.90;;;;;;5061590;28;19939;-81
2021/07/03 13:48:18;;;;;;;;;;;25.40;99.90;;;;;;5067360;28;19969;-83
2021/07/03 13:50:44;;;;;;;;;;;25.40;99.90;;;;;;5070250;28;20003;-78
2021/07/03 13:53:10;;;;;;;;;;;25.50;99.90;;;;;;5068843;28;19919;-77
2021/07/03 13:55:36;;;;;;;;;;;25.40;99.90;;;;;;5072752;28;19909;-79
2021/07/03 13:58:05;;;;;;;;;;;25.50;99.90;;;;;;5074959;28;19920;-80
2021/07/03 14:00:31;;;;;;;;;;;25.50;99.90;;;;;;5053227;28;19897;-79
2021/07/03 14:02:56;;;;;;;;;;;25.50;99.90;;;;;;5045215;28;19973;-78
2021/07/03 14:05:22;;;;;;;;;;;25.40;99.90;;;;;;5048621;28;19921;-78
2021/07/03 14:07:48;;;;;;;;;;;25.20;99.90;;;;;;5046527;28;19929;-78
2021/07/03 14:10:14;;;;;;;;;;;25.20;99.90;;;;;;5049818;28;19913;-77
2021/07/03 14:12:39;;;;;;;;;;;25.10;99.90;;;;;;5041379;28;19936;-84
2021/07/03 14:15:06;;;;;;;;;;;25.10;99.90;;;;;;5040326;28;19916;-77